sensor_id;sensor_type;location;lat;lon;timestamp;temperature;humidity
67799;SHT30;54596;43.216;27.904;2022-11-15T00:00:51;9.61;84.52
67799;SHT30;54596;43.216;27.904;2022-11-15T00:03:19;9.62;84.43
67799;SHT30;54596;43.216;27.904;2022-11-15T00:05:45;9.66;84.34
67799;SHT30;54596;43.216;27.904;2022-11-15T00:08:11;9.61;84.36
67799;SHT30;54596;43.216;27.904;2022-11-15T00:10:36;9.61;84.53
67799;SHT30;54596;43.216;27.904;2022-11-15T00:13:06;9.62;84.44
67799;SHT30;54596;43.216;27.904;2022-11-15T00:15:35;9.58;84.50
67799;SHT30;54596;43.216;27.904;2022-11-15T00:18:01;9.56;84.55
67799;SHT30;54596;43.216;27.904;2022-11-15T00:20:27;9.59;84.47
67799;SHT30;54596;43.216;27.904;2022-11-15T00:22:52;9.56;84.45
67799;SHT30;54596;43.216;27.904;2022-11-15T00:25:18;9.59;84.41
67799;SHT30;54596;43.216;27.904;2022-11-15T00:27:43;9.61;84.43
67799;SHT30;54596;43.216;27.904;2022-11-15T00:30:10;9.59;84.31
67799;SHT30;54596;43.216;27.904;2022-11-15T00:32:36;9.58;84.36
67799;SHT30;54596;43.216;27.904;2022-11-15T00:35:01;9.62;84.26
67799;SHT30;54596;43.216;27.904;2022-11-15T00:37:27;9.62;84.45
67799;SHT30;54596;43.216;27.904;2022-11-15T00:39:53;9.61;84.36
67799;SHT30;54596;43.216;27.904;2022-11-15T00:42:18;9.61;84.30
67799;SHT30;54596;43.216;27.904;2022-11-15T00:44:43;9.56;84.34
67799;SHT30;54596;43.216;27.904;2022-11-15T00:47:09;9.55;84.86
67799;SHT30;54596;43.216;27.904;2022-11-15T00:49:34;9.46;85.00
67799;SHT30;54596;43.216;27.904;2022-11-15T00:52:00;9.44;85.57
67799;SHT30;54596;43.216;27.904;2022-11-15T00:54:25;9.38;85.57
67799;SHT30;54596;43.216;27.904;2022-11-15T00:56:51;9.46;85.29
67799;SHT30;54596;43.216;27.904;2022-11-15T00:59:16;9.51;84.99
67799;SHT30;54596;43.216;27.904;2022-11-15T01:01:42;9.53;84.73
67799;SHT30;54596;43.216;27.904;2022-11-15T01:04:07;9.55;84.66
67799;SHT30;54596;43.216;27.904;2022-11-15T01:06:33;9.61;84.62
67799;SHT30;54596;43.216;27.904;2022-11-15T01:08:58;9.59;84.51
67799;SHT30;54596;43.216;27.904;2022-11-15T01:11:23;9.62;84.51
67799;SHT30;54596;43.216;27.904;2022-11-15T01:13:49;9.58;84.31
67799;SHT30;54596;43.216;27.904;2022-11-15T01:16:17;9.59;84.35
67799;SHT30;54596;43.216;27.904;2022-11-15T01:18:44;9.65;84.33
67799;SHT30;54596;43.216;27.904;2022-11-15T01:21:12;9.62;84.38
67799;SHT30;54596;43.216;27.904;2022-11-15T01:23:38;9.62;84.52
67799;SHT30;54596;43.216;27.904;2022-11-15T01:26:06;9.58;85.01
67799;SHT30;54596;43.216;27.904;2022-11-15T01:28:36;9.62;84.76
67799;SHT30;54596;43.216;27.904;2022-11-15T01:31:05;9.62;84.47
67799;SHT30;54596;43.216;27.904;2022-11-15T01:33:34;9.58;84.46
67799;SHT30;54596;43.216;27.904;2022-11-15T01:36:06;9.59;84.46
67799;SHT30;54596;43.216;27.904;2022-11-15T01:38:33;9.61;84.40
67799;SHT30;54596;43.216;27.904;2022-11-15T01:40:58;9.55;84.61
67799;SHT30;54596;43.216;27.904;2022-11-15T01:43:33;9.59;84.70
67799;SHT30;54596;43.216;27.904;2022-11-15T01:46:04;9.55;85.10
67799;SHT30;54596;43.216;27.904;2022-11-15T01:48:33;9.51;85.30
67799;SHT30;54596;43.216;27.904;2022-11-15T01:51:09;9.53;85.49
67799;SHT30;54596;43.216;27.904;2022-11-15T01:53:37;9.55;85.68
67799;SHT30;54596;43.216;27.904;2022-11-15T01:56:06;9.59;85.98
67799;SHT30;54596;43.216;27.904;2022-11-15T01:58:33;9.61;85.94
67799;SHT30;54596;43.216;27.904;2022-11-15T02:00:59;9.61;86.21
67799;SHT30;54596;43.216;27.904;2022-11-15T02:03:41;9.58;86.13
67799;SHT30;54596;43.216;27.904;2022-11-15T02:06:09;9.58;86.02
67799;SHT30;54596;43.216;27.904;2022-11-15T02:08:35;9.58;85.84
67799;SHT30;54596;43.216;27.904;2022-11-15T02:11:00;9.55;85.89
67799;SHT30;54596;43.216;27.904;2022-11-15T02:13:26;9.59;85.86
67799;SHT30;54596;43.216;27.904;2022-11-15T02:15:59;9.56;85.75
67799;SHT30;54596;43.216;27.904;2022-11-15T02:18:41;9.55;85.54
67799;SHT30;54596;43.216;27.904;2022-11-15T02:21:20;9.58;85.62
67799;SHT30;54596;43.216;27.904;2022-11-15T02:29:39;9.53;85.49
67799;SHT30;54596;43.216;27.904;2022-11-15T02:32:19;9.58;85.40
67799;SHT30;54596;43.216;27.904;2022-11-15T02:34:56;9.55;85.46
67799;SHT30;54596;43.216;27.904;2022-11-15T02:43:11;9.56;85.42
67799;SHT30;54596;43.216;27.904;2022-11-15T02:46:21;9.53;85.42
67799;SHT30;54596;43.216;27.904;2022-11-15T02:49:10;9.55;85.35
67799;SHT30;54596;43.216;27.904;2022-11-15T02:51:36;9.55;85.34
67799;SHT30;54596;43.216;27.904;2022-11-15T02:54:02;9.59;85.28
67799;SHT30;54596;43.216;27.904;2022-11-15T02:56:27;9.58;85.15
67799;SHT30;54596;43.216;27.904;2022-11-15T03:01:44;9.59;85.08
67799;SHT30;54596;43.216;27.904;2022-11-15T03:06:58;9.59;84.97
67799;SHT30;54596;43.216;27.904;2022-11-15T03:09:35;9.56;84.89
67799;SHT30;54596;43.216;27.904;2022-11-15T03:17:25;9.55;84.80
67799;SHT30;54596;43.216;27.904;2022-11-15T03:19:55;9.56;84.80
67799;SHT30;54596;43.216;27.904;2022-11-15T03:22:24;9.58;84.77
67799;SHT30;54596;43.216;27.904;2022-11-15T03:24:54;9.59;84.63
67799;SHT30;54596;43.216;27.904;2022-11-15T03:27:25;9.56;84.77
67799;SHT30;54596;43.216;27.904;2022-11-15T03:29:56;9.58;84.86
67799;SHT30;54596;43.216;27.904;2022-11-15T03:32:28;9.59;84.78
67799;SHT30;54596;43.216;27.904;2022-11-15T03:35:04;9.62;85.18
67799;SHT30;54596;43.216;27.904;2022-11-15T03:37:57;9.72;84.53
67799;SHT30;54596;43.216;27.904;2022-11-15T03:40:30;9.72;84.17
67799;SHT30;54596;43.216;27.904;2022-11-15T03:43:52;9.76;84.43
67799;SHT30;54596;43.216;27.904;2022-11-15T03:46:32;9.76;84.25
67799;SHT30;54596;43.216;27.904;2022-11-15T03:49:14;9.78;84.34
67799;SHT30;54596;43.216;27.904;2022-11-15T03:51:40;9.78;84.70
67799;SHT30;54596;43.216;27.904;2022-11-15T03:54:06;9.75;84.57
67799;SHT30;54596;43.216;27.904;2022-11-15T03:56:32;9.75;84.71
67799;SHT30;54596;43.216;27.904;2022-11-15T03:58:58;9.73;84.59
67799;SHT30;54596;43.216;27.904;2022-11-15T04:01:23;9.69;85.26
67799;SHT30;54596;43.216;27.904;2022-11-15T04:03:49;9.65;84.74
67799;SHT30;54596;43.216;27.904;2022-11-15T04:06:14;9.68;84.89
67799;SHT30;54596;43.216;27.904;2022-11-15T04:08:40;9.69;85.45
67799;SHT30;54596;43.216;27.904;2022-11-15T04:11:05;9.75;85.39
67799;SHT30;54596;43.216;27.904;2022-11-15T04:13:31;9.70;84.76
67799;SHT30;54596;43.216;27.904;2022-11-15T04:15:56;9.66;84.74
67799;SHT30;54596;43.216;27.904;2022-11-15T04:18:22;9.66;84.80
67799;SHT30;54596;43.216;27.904;2022-11-15T04:20:47;9.65;84.68
67799;SHT30;54596;43.216;27.904;2022-11-15T04:23:31;9.65;84.63
67799;SHT30;54596;43.216;27.904;2022-11-15T04:26:18;9.65;84.61
67799;SHT30;54596;43.216;27.904;2022-11-15T04:28:45;9.62;84.85
67799;SHT30;54596;43.216;27.904;2022-11-15T04:31:29;9.59;85.15
67799;SHT30;54596;43.216;27.904;2022-11-15T04:33:54;9.56;85.15
67799;SHT30;54596;43.216;27.904;2022-11-15T04:36:21;9.51;85.30
67799;SHT30;54596;43.216;27.904;2022-11-15T04:39:05;9.51;85.22
67799;SHT30;54596;43.216;27.904;2022-11-15T04:41:30;9.52;85.20
67799;SHT30;54596;43.216;27.904;2022-11-15T04:43:56;9.48;85.25
67799;SHT30;54596;43.216;27.904;2022-11-15T04:46:22;9.46;85.36
67799;SHT30;54596;43.216;27.904;2022-11-15T04:48:49;9.48;85.29
67799;SHT30;54596;43.216;27.904;2022-11-15T04:51:14;9.45;85.48
67799;SHT30;54596;43.216;27.904;2022-11-15T04:53:40;9.46;85.69
67799;SHT30;54596;43.216;27.904;2022-11-15T04:56:05;9.46;85.63
67799;SHT30;54596;43.216;27.904;2022-11-15T04:58:31;9.44;85.35
67799;SHT30;54596;43.216;27.904;2022-11-15T05:00:56;9.45;85.38
67799;SHT30;54596;43.216;27.904;2022-11-15T05:03:22;9.48;85.60
67799;SHT30;54596;43.216;27.904;2022-11-15T05:06:06;9.48;85.25
67799;SHT30;54596;43.216;27.904;2022-11-15T05:08:32;9.46;85.39
67799;SHT30;54596;43.216;27.904;2022-11-15T05:10:57;9.52;85.28
67799;SHT30;54596;43.216;27.904;2022-11-15T05:13:23;9.46;85.45
67799;SHT30;54596;43.216;27.904;2022-11-15T05:15:48;9.53;86.12
67799;SHT30;54596;43.216;27.904;2022-11-15T05:18:14;9.56;85.92
67799;SHT30;54596;43.216;27.904;2022-11-15T05:20:39;9.61;85.39
67799;SHT30;54596;43.216;27.904;2022-11-15T05:23:05;9.61;85.12
67799;SHT30;54596;43.216;27.904;2022-11-15T05:25:30;9.61;85.09
67799;SHT30;54596;43.216;27.904;2022-11-15T05:27:56;9.58;85.13
67799;SHT30;54596;43.216;27.904;2022-11-15T05:30:22;9.61;85.03
67799;SHT30;54596;43.216;27.904;2022-11-15T05:32:48;9.61;84.88
67799;SHT30;54596;43.216;27.904;2022-11-15T05:35:20;9.62;85.26
67799;SHT30;54596;43.216;27.904;2022-11-15T05:37:48;9.56;84.95
67799;SHT30;54596;43.216;27.904;2022-11-15T05:40:14;9.53;85.22
67799;SHT30;54596;43.216;27.904;2022-11-15T05:42:39;9.52;85.10
67799;SHT30;54596;43.216;27.904;2022-11-15T05:45:06;9.56;85.01
67799;SHT30;54596;43.216;27.904;2022-11-15T05:47:34;9.61;84.90
67799;SHT30;54596;43.216;27.904;2022-11-15T05:50:00;9.65;84.77
67799;SHT30;54596;43.216;27.904;2022-11-15T05:52:29;9.62;84.70
67799;SHT30;54596;43.216;27.904;2022-11-15T05:54:56;9.61;84.65
67799;SHT30;54596;43.216;27.904;2022-11-15T05:57:23;9.56;84.81
67799;SHT30;54596;43.216;27.904;2022-11-15T05:59:49;9.53;84.82
67799;SHT30;54596;43.216;27.904;2022-11-15T06:02:15;9.58;84.50
67799;SHT30;54596;43.216;27.904;2022-11-15T06:04:40;9.65;84.41
67799;SHT30;54596;43.216;27.904;2022-11-15T06:07:05;9.72;84.14
67799;SHT30;54596;43.216;27.904;2022-11-15T06:09:31;9.72;84.02
67799;SHT30;54596;43.216;27.904;2022-11-15T06:11:56;9.76;83.88
67799;SHT30;54596;43.216;27.904;2022-11-15T06:14:22;9.82;83.90
67799;SHT30;54596;43.216;27.904;2022-11-15T06:16:47;9.86;83.79
67799;SHT30;54596;43.216;27.904;2022-11-15T06:19:13;9.89;83.80
67799;SHT30;54596;43.216;27.904;2022-11-15T06:21:38;9.90;83.69
67799;SHT30;54596;43.216;27.904;2022-11-15T06:24:05;9.93;83.59
67799;SHT30;54596;43.216;27.904;2022-11-15T06:26:31;9.98;83.48
67799;SHT30;54596;43.216;27.904;2022-11-15T06:28:56;10.11;82.96
67799;SHT30;54596;43.216;27.904;2022-11-15T06:31:22;10.14;83.03
67799;SHT30;54596;43.216;27.904;2022-11-15T06:33:47;10.24;82.63
67799;SHT30;54596;43.216;27.904;2022-11-15T06:36:15;10.28;82.44
67799;SHT30;54596;43.216;27.904;2022-11-15T06:38:42;10.30;82.47
67799;SHT30;54596;43.216;27.904;2022-11-15T06:41:09;10.35;82.39
67799;SHT30;54596;43.216;27.904;2022-11-15T06:43:36;10.35;82.57
67799;SHT30;54596;43.216;27.904;2022-11-15T06:46:03;10.37;82.58
67799;SHT30;54596;43.216;27.904;2022-11-15T06:48:29;10.38;82.36
67799;SHT30;54596;43.216;27.904;2022-11-15T06:50:57;10.38;82.35
67799;SHT30;54596;43.216;27.904;2022-11-15T06:53:24;10.45;82.28
67799;SHT30;54596;43.216;27.904;2022-11-15T06:55:50;10.52;81.99
67799;SHT30;54596;43.216;27.904;2022-11-15T06:58:15;10.31;83.04
67799;SHT30;54596;43.216;27.904;2022-11-15T07:00:41;10.34;82.70
67799;SHT30;54596;43.216;27.904;2022-11-15T07:03:07;10.41;82.61
67799;SHT30;54596;43.216;27.904;2022-11-15T07:05:32;10.41;82.73
67799;SHT30;54596;43.216;27.904;2022-11-15T07:07:58;10.32;83.10
67799;SHT30;54596;43.216;27.904;2022-11-15T07:10:25;10.27;83.05
67799;SHT30;54596;43.216;27.904;2022-11-15T07:12:51;10.37;82.75
67799;SHT30;54596;43.216;27.904;2022-11-15T07:15:18;10.42;82.52
67799;SHT30;54596;43.216;27.904;2022-11-15T07:17:43;10.41;82.57
67799;SHT30;54596;43.216;27.904;2022-11-15T07:20:09;10.44;82.41
67799;SHT30;54596;43.216;27.904;2022-11-15T07:22:35;10.48;82.29
67799;SHT30;54596;43.216;27.904;2022-11-15T07:25:00;10.38;83.02
67799;SHT30;54596;43.216;27.904;2022-11-15T07:27:26;10.42;83.07
67799;SHT30;54596;43.216;27.904;2022-11-15T07:29:52;10.46;82.97
67799;SHT30;54596;43.216;27.904;2022-11-15T07:32:17;10.45;83.36
67799;SHT30;54596;43.216;27.904;2022-11-15T07:34:42;10.50;83.17
67799;SHT30;54596;43.216;27.904;2022-11-15T07:37:08;10.39;83.70
67799;SHT30;54596;43.216;27.904;2022-11-15T07:39:33;10.46;83.46
67799;SHT30;54596;43.216;27.904;2022-11-15T07:41:59;10.35;84.11
67799;SHT30;54596;43.216;27.904;2022-11-15T07:44:43;10.46;83.64
67799;SHT30;54596;43.216;27.904;2022-11-15T07:47:08;10.49;83.26
67799;SHT30;54596;43.216;27.904;2022-11-15T07:49:34;10.60;83.25
67799;SHT30;54596;43.216;27.904;2022-11-15T07:51:59;10.65;83.15
67799;SHT30;54596;43.216;27.904;2022-11-15T07:54:25;10.66;82.94
67799;SHT30;54596;43.216;27.904;2022-11-15T07:56:50;10.65;82.96
67799;SHT30;54596;43.216;27.904;2022-11-15T07:59:16;10.50;83.60
67799;SHT30;54596;43.216;27.904;2022-11-15T08:01:41;10.42;84.15
67799;SHT30;54596;43.216;27.904;2022-11-15T08:04:06;10.53;83.99
67799;SHT30;54596;43.216;27.904;2022-11-15T08:06:32;10.58;83.79
67799;SHT30;54596;43.216;27.904;2022-11-15T08:08:57;10.55;83.80
67799;SHT30;54596;43.216;27.904;2022-11-15T08:11:23;10.60;83.67
67799;SHT30;54596;43.216;27.904;2022-11-15T08:13:48;10.55;83.74
67799;SHT30;54596;43.216;27.904;2022-11-15T08:16:14;10.53;83.82
67799;SHT30;54596;43.216;27.904;2022-11-15T08:18:39;10.53;83.84
67799;SHT30;54596;43.216;27.904;2022-11-15T08:21:05;10.52;84.21
67799;SHT30;54596;43.216;27.904;2022-11-15T08:23:30;10.34;85.04
67799;SHT30;54596;43.216;27.904;2022-11-15T08:26:04;10.39;84.85
67799;SHT30;54596;43.216;27.904;2022-11-15T08:28:30;10.52;84.71
67799;SHT30;54596;43.216;27.904;2022-11-15T08:30:56;10.53;84.94
67799;SHT30;54596;43.216;27.904;2022-11-15T08:33:21;10.50;85.08
67799;SHT30;54596;43.216;27.904;2022-11-15T08:35:48;10.59;84.96
67799;SHT30;54596;43.216;27.904;2022-11-15T08:38:13;10.48;85.46
67799;SHT30;54596;43.216;27.904;2022-11-15T08:40:39;10.55;85.29
67799;SHT30;54596;43.216;27.904;2022-11-15T08:43:05;10.59;85.25
67799;SHT30;54596;43.216;27.904;2022-11-15T08:45:31;10.67;84.88
67799;SHT30;54596;43.216;27.904;2022-11-15T08:47:57;10.70;84.88
67799;SHT30;54596;43.216;27.904;2022-11-15T08:50:23;10.72;84.57
67799;SHT30;54596;43.216;27.904;2022-11-15T08:52:48;10.84;84.28
67799;SHT30;54596;43.216;27.904;2022-11-15T08:55:14;10.84;84.21
67799;SHT30;54596;43.216;27.904;2022-11-15T08:57:40;10.90;84.12
67799;SHT30;54596;43.216;27.904;2022-11-15T09:00:06;10.92;84.03
67799;SHT30;54596;43.216;27.904;2022-11-15T09:02:31;10.93;83.86
67799;SHT30;54596;43.216;27.904;2022-11-15T09:04:57;10.96;83.76
67799;SHT30;54596;43.216;27.904;2022-11-15T09:07:22;10.99;83.68
67799;SHT30;54596;43.216;27.904;2022-11-15T09:09:48;10.93;83.39
67799;SHT30;54596;43.216;27.904;2022-11-15T09:12:13;11.04;83.19
67799;SHT30;54596;43.216;27.904;2022-11-15T09:14:39;11.08;83.15
67799;SHT30;54596;43.216;27.904;2022-11-15T09:17:07;11.06;83.43
67799;SHT30;54596;43.216;27.904;2022-11-15T09:19:33;11.06;83.64
67799;SHT30;54596;43.216;27.904;2022-11-15T09:21:59;11.08;83.55
67799;SHT30;54596;43.216;27.904;2022-11-15T09:24:25;11.03;83.81
67799;SHT30;54596;43.216;27.904;2022-11-15T09:26:51;11.03;83.50
67799;SHT30;54596;43.216;27.904;2022-11-15T09:29:17;11.12;83.32
67799;SHT30;54596;43.216;27.904;2022-11-15T09:31:43;11.25;82.99
67799;SHT30;54596;43.216;27.904;2022-11-15T09:34:08;11.36;82.92
67799;SHT30;54596;43.216;27.904;2022-11-15T09:36:34;11.34;82.95
67799;SHT30;54596;43.216;27.904;2022-11-15T09:39:00;11.36;83.01
67799;SHT30;54596;43.216;27.904;2022-11-15T09:41:39;11.40;82.74
67799;SHT30;54596;43.216;27.904;2022-11-15T09:44:24;11.38;82.85
67799;SHT30;54596;43.216;27.904;2022-11-15T09:47:05;11.55;82.41
67799;SHT30;54596;43.216;27.904;2022-11-15T09:49:32;11.70;81.96
67799;SHT30;54596;43.216;27.904;2022-11-15T09:51:58;11.76;81.76
67799;SHT30;54596;43.216;27.904;2022-11-15T09:54:42;11.61;82.16
67799;SHT30;54596;43.216;27.904;2022-11-15T10:02:52;11.83;81.61
67799;SHT30;54596;43.216;27.904;2022-11-15T10:05:17;11.79;81.64
67799;SHT30;54596;43.216;27.904;2022-11-15T10:08:02;11.94;81.45
67799;SHT30;54596;43.216;27.904;2022-11-15T10:10:40;11.89;81.61
67799;SHT30;54596;43.216;27.904;2022-11-15T10:13:19;11.94;81.21
67799;SHT30;54596;43.216;27.904;2022-11-15T10:15:46;12.02;80.98
67799;SHT30;54596;43.216;27.904;2022-11-15T10:18:35;12.00;81.24
67799;SHT30;54596;43.216;27.904;2022-11-15T10:21:23;12.10;80.91
67799;SHT30;54596;43.216;27.904;2022-11-15T10:23:50;12.22;80.61
67799;SHT30;54596;43.216;27.904;2022-11-15T10:26:17;12.31;80.57
67799;SHT30;54596;43.216;27.904;2022-11-15T10:28:43;12.35;80.56
67799;SHT30;54596;43.216;27.904;2022-11-15T10:31:29;12.25;81.01
67799;SHT30;54596;43.216;27.904;2022-11-15T10:34:14;12.36;80.66
67799;SHT30;54596;43.216;27.904;2022-11-15T10:36:54;12.34;80.70
67799;SHT30;54596;43.216;27.904;2022-11-15T10:39:20;12.39;80.63
67799;SHT30;54596;43.216;27.904;2022-11-15T10:41:45;12.26;81.04
67799;SHT30;54596;43.216;27.904;2022-11-15T10:47:04;12.59;80.38
67799;SHT30;54596;43.216;27.904;2022-11-15T10:49:32;12.49;80.42
67799;SHT30;54596;43.216;27.904;2022-11-15T10:52:17;12.31;81.19
67799;SHT30;54596;43.216;27.904;2022-11-15T10:54:59;12.22;81.49
67799;SHT30;54596;43.216;27.904;2022-11-15T10:57:53;12.29;81.29
67799;SHT30;54596;43.216;27.904;2022-11-15T11:03:00;12.56;80.71
67799;SHT30;54596;43.216;27.904;2022-11-15T11:05:34;12.59;80.43
67799;SHT30;54596;43.216;27.904;2022-11-15T11:10:36;12.60;80.14
67799;SHT30;54596;43.216;27.904;2022-11-15T11:13:20;12.67;79.76
67799;SHT30;54596;43.216;27.904;2022-11-15T11:21:17;12.79;79.71
67799;SHT30;54596;43.216;27.904;2022-11-15T11:23:58;12.84;79.17
67799;SHT30;54596;43.216;27.904;2022-11-15T11:29:25;12.88;79.59
67799;SHT30;54596;43.216;27.904;2022-11-15T11:37:52;13.05;78.72
67799;SHT30;54596;43.216;27.904;2022-11-15T11:40:41;13.08;78.55
67799;SHT30;54596;43.216;27.904;2022-11-15T11:46:10;12.95;78.03
67799;SHT30;54596;43.216;27.904;2022-11-15T11:48:47;12.86;78.89
67799;SHT30;54596;43.216;27.904;2022-11-15T11:51:28;12.76;79.12
67799;SHT30;54596;43.216;27.904;2022-11-15T11:54:12;12.91;78.78
67799;SHT30;54596;43.216;27.904;2022-11-15T11:56:41;12.94;78.57
67799;SHT30;54596;43.216;27.904;2022-11-15T12:01:57;12.98;78.49
67799;SHT30;54596;43.216;27.904;2022-11-15T12:04:38;13.04;78.12
67799;SHT30;54596;43.216;27.904;2022-11-15T12:09:44;13.18;76.83
67799;SHT30;54596;43.216;27.904;2022-11-15T12:12:41;13.11;76.39
67799;SHT30;54596;43.216;27.904;2022-11-15T12:17:36;13.21;76.21
67799;SHT30;54596;43.216;27.904;2022-11-15T12:20:13;13.08;76.82
67799;SHT30;54596;43.216;27.904;2022-11-15T12:22:47;13.11;77.13
67799;SHT30;54596;43.216;27.904;2022-11-15T12:33:44;13.28;75.92
67799;SHT30;54596;43.216;27.904;2022-11-15T12:41:26;13.28;76.01
67799;SHT30;54596;43.216;27.904;2022-11-15T12:43:52;13.26;76.05
67799;SHT30;54596;43.216;27.904;2022-11-15T12:49:03;13.16;76.16
67799;SHT30;54596;43.216;27.904;2022-11-15T13:04:49;12.95;77.51
67799;SHT30;54596;43.216;27.904;2022-11-15T13:09:59;13.03;76.92
67799;SHT30;54596;43.216;27.904;2022-11-15T13:14:56;13.03;76.54
67799;SHT30;54596;43.216;27.904;2022-11-15T13:19:53;13.01;76.99
67799;SHT30;54596;43.216;27.904;2022-11-15T13:22:22;13.00;76.89
67799;SHT30;54596;43.216;27.904;2022-11-15T13:25:16;12.84;77.07
67799;SHT30;54596;43.216;27.904;2022-11-15T13:27:47;12.69;77.49
67799;SHT30;54596;43.216;27.904;2022-11-15T13:30:19;12.75;77.67
67799;SHT30;54596;43.216;27.904;2022-11-15T13:32:46;12.73;77.79
67799;SHT30;54596;43.216;27.904;2022-11-15T13:35:25;12.60;78.00
67799;SHT30;54596;43.216;27.904;2022-11-15T13:37:53;12.57;78.16
67799;SHT30;54596;43.216;27.904;2022-11-15T13:40:34;12.53;78.50
67799;SHT30;54596;43.216;27.904;2022-11-15T13:42:59;12.59;78.52
67799;SHT30;54596;43.216;27.904;2022-11-15T13:45:39;12.63;78.39
67799;SHT30;54596;43.216;27.904;2022-11-15T13:48:04;12.57;78.67
67799;SHT30;54596;43.216;27.904;2022-11-15T13:50:33;12.53;78.78
67799;SHT30;54596;43.216;27.904;2022-11-15T13:53:03;12.52;79.49
67799;SHT30;54596;43.216;27.904;2022-11-15T13:55:30;12.52;79.04
67799;SHT30;54596;43.216;27.904;2022-11-15T13:58:00;12.48;79.15
67799;SHT30;54596;43.216;27.904;2022-11-15T14:00:41;12.39;79.41
67799;SHT30;54596;43.216;27.904;2022-11-15T14:03:34;12.38;79.55
67799;SHT30;54596;43.216;27.904;2022-11-15T14:06:11;12.38;79.54
67799;SHT30;54596;43.216;27.904;2022-11-15T14:08:58;12.36;79.65
67799;SHT30;54596;43.216;27.904;2022-11-15T14:11:24;12.36;79.81
67799;SHT30;54596;43.216;27.904;2022-11-15T14:16:57;12.22;80.01
67799;SHT30;54596;43.216;27.904;2022-11-15T14:24:36;12.10;80.74
67799;SHT30;54596;43.216;27.904;2022-11-15T14:27:27;12.13;80.75
67799;SHT30;54596;43.216;27.904;2022-11-15T14:29:53;12.15;80.76
67799;SHT30;54596;43.216;27.904;2022-11-15T14:32:25;12.10;80.93
67799;SHT30;54596;43.216;27.904;2022-11-15T14:35:01;12.11;81.15
67799;SHT30;54596;43.216;27.904;2022-11-15T14:37:29;12.02;81.36
67799;SHT30;54596;43.216;27.904;2022-11-15T14:39:58;12.02;81.41
67799;SHT30;54596;43.216;27.904;2022-11-15T14:42:24;12.00;81.52
67799;SHT30;54596;43.216;27.904;2022-11-15T14:44:50;11.98;81.73
67799;SHT30;54596;43.216;27.904;2022-11-15T14:47:15;11.95;81.90
67799;SHT30;54596;43.216;27.904;2022-11-15T14:49:41;11.95;81.85
67799;SHT30;54596;43.216;27.904;2022-11-15T14:52:34;11.98;81.84
67799;SHT30;54596;43.216;27.904;2022-11-15T14:55:09;11.98;81.76
67799;SHT30;54596;43.216;27.904;2022-11-15T14:57:36;11.97;81.88
67799;SHT30;54596;43.216;27.904;2022-11-15T15:00:03;11.90;81.90
67799;SHT30;54596;43.216;27.904;2022-11-15T15:02:28;11.87;82.11
67799;SHT30;54596;43.216;27.904;2022-11-15T15:04:54;11.90;82.13
67799;SHT30;54596;43.216;27.904;2022-11-15T15:07:19;11.90;82.17
67799;SHT30;54596;43.216;27.904;2022-11-15T15:09:45;11.89;82.17
67799;SHT30;54596;43.216;27.904;2022-11-15T15:12:15;11.89;82.20
67799;SHT30;54596;43.216;27.904;2022-11-15T15:14:41;11.91;82.15
67799;SHT30;54596;43.216;27.904;2022-11-15T15:17:06;11.91;82.11
67799;SHT30;54596;43.216;27.904;2022-11-15T15:19:31;11.86;82.21
67799;SHT30;54596;43.216;27.904;2022-11-15T15:21:57;11.89;82.38
67799;SHT30;54596;43.216;27.904;2022-11-15T15:24:22;11.86;82.52
67799;SHT30;54596;43.216;27.904;2022-11-15T15:26:48;11.86;82.58
67799;SHT30;54596;43.216;27.904;2022-11-15T15:29:13;11.83;82.65
67799;SHT30;54596;43.216;27.904;2022-11-15T15:31:39;11.89;82.69
67799;SHT30;54596;43.216;27.904;2022-11-15T15:34:04;11.86;82.80
67799;SHT30;54596;43.216;27.904;2022-11-15T15:36:30;11.84;82.92
67799;SHT30;54596;43.216;27.904;2022-11-15T15:38:55;11.81;83.13
67799;SHT30;54596;43.216;27.904;2022-11-15T15:41:21;11.81;83.28
67799;SHT30;54596;43.216;27.904;2022-11-15T15:43:46;11.81;83.37
67799;SHT30;54596;43.216;27.904;2022-11-15T15:46:17;11.86;83.43
67799;SHT30;54596;43.216;27.904;2022-11-15T15:48:44;11.86;83.51
67799;SHT30;54596;43.216;27.904;2022-11-15T15:51:10;11.86;83.61
67799;SHT30;54596;43.216;27.904;2022-11-15T15:53:35;11.84;83.73
67799;SHT30;54596;43.216;27.904;2022-11-15T15:56:01;11.87;83.83
67799;SHT30;54596;43.216;27.904;2022-11-15T15:58:26;11.89;83.75
67799;SHT30;54596;43.216;27.904;2022-11-15T16:00:52;11.87;83.90
67799;SHT30;54596;43.216;27.904;2022-11-15T16:03:17;11.97;83.78
67799;SHT30;54596;43.216;27.904;2022-11-15T16:05:43;11.93;83.83
67799;SHT30;54596;43.216;27.904;2022-11-15T16:08:19;11.93;83.74
67799;SHT30;54596;43.216;27.904;2022-11-15T16:10:45;11.94;83.74
67799;SHT30;54596;43.216;27.904;2022-11-15T16:13:11;11.90;83.86
67799;SHT30;54596;43.216;27.904;2022-11-15T16:15:36;11.89;83.89
67799;SHT30;54596;43.216;27.904;2022-11-15T16:18:04;11.86;83.97
67799;SHT30;54596;43.216;27.904;2022-11-15T16:23:14;11.90;83.90
67799;SHT30;54596;43.216;27.904;2022-11-15T16:25:54;11.95;83.92
67799;SHT30;54596;43.216;27.904;2022-11-15T16:28:30;11.98;83.85
67799;SHT30;54596;43.216;27.904;2022-11-15T16:31:02;11.97;83.71
67799;SHT30;54596;43.216;27.904;2022-11-15T16:33:28;11.97;83.79
67799;SHT30;54596;43.216;27.904;2022-11-15T16:35:53;12.00;83.77
67799;SHT30;54596;43.216;27.904;2022-11-15T16:38:19;12.00;83.79
67799;SHT30;54596;43.216;27.904;2022-11-15T16:40:44;11.98;83.73
67799;SHT30;54596;43.216;27.904;2022-11-15T16:43:10;11.98;83.87
67799;SHT30;54596;43.216;27.904;2022-11-15T16:45:36;12.00;83.82
67799;SHT30;54596;43.216;27.904;2022-11-15T16:48:02;12.00;83.91
67799;SHT30;54596;43.216;27.904;2022-11-15T16:50:31;12.00;83.69
67799;SHT30;54596;43.216;27.904;2022-11-15T16:52:59;12.01;83.87
67799;SHT30;54596;43.216;27.904;2022-11-15T16:55:27;12.04;83.74
67799;SHT30;54596;43.216;27.904;2022-11-15T16:57:53;12.05;83.81
67799;SHT30;54596;43.216;27.904;2022-11-15T17:00:20;12.05;83.98
67799;SHT30;54596;43.216;27.904;2022-11-15T17:02:47;12.05;84.24
67799;SHT30;54596;43.216;27.904;2022-11-15T17:05:13;12.07;84.34
67799;SHT30;54596;43.216;27.904;2022-11-15T17:07:39;12.07;84.09
67799;SHT30;54596;43.216;27.904;2022-11-15T17:10:06;12.08;83.82
67799;SHT30;54596;43.216;27.904;2022-11-15T17:12:35;12.13;83.69
67799;SHT30;54596;43.216;27.904;2022-11-15T17:15:01;12.15;83.56
67799;SHT30;54596;43.216;27.904;2022-11-15T17:17:29;12.14;83.64
67799;SHT30;54596;43.216;27.904;2022-11-15T17:19:54;12.14;83.69
67799;SHT30;54596;43.216;27.904;2022-11-15T17:22:20;12.10;84.07
67799;SHT30;54596;43.216;27.904;2022-11-15T17:24:45;12.13;83.96